Accueil
METAR-TAF:

METAR-TAF

Aéroports :

Agen, France

Aéroport Agen-La Garenne

latitude: 44-11N, longitude: 000-36E, altitude: 61 m

Observation

Le bulletin a été fait il y a 21 minutes, à 01:30 UTC
Vent 6 kt de nord-ouest
Température 21°C
Humidité 69%
Pression 1023 hPa
Visibilité 10 km ou plus
Ciel couvert à une hauteur de 4000 ft

METAR: LFBA 240130Z AUTO 31006KT 9999 OVC040 21/15 Q1023

Heure: 03:51 (01:51 UTC)

Prévision

Le bulletin a été fait il y a 11 heures et 51 minutes, à 14:00 UTC
Prévision valable du 23 à 15 UTC au 23 à 24 UTC
Vent 8 kt de nord-ouest
Visibilité 10 km ou plus
Nuages fragmentés à une hauteur de 2000 ft
Evoluant progressivement
du 23 à 15 UTC au 23 à 17 UTC
Nuages épars à une hauteur de 3000 ft

TAF: LFBA 231400Z 2315/2324 32008KT 9999 BKN020 BECMG 2315/2317 SCT030

Observations et prévisions météorologiques de plus de 4000 aéroports (messages METAR et TAF).

Les stations disponibles sont représentées par des disques jaunes et rouges sur la carte.

Passer la souris dessus pour voir le nom de la station.

Cliquer dessus pour voir les observations et prévisions météorologiques.

Pour changer de carte: cliquez sur les boutons verts avec une croix noire pour zoomer, sur le bouton vert avec un tiret pour effectuer un zoom arrière, ou sur les flèches vertes pour les cartes adjacentes.


METAR-TAF: